Time;durP1;ratioP1;P1;durP2;ratioP2;P2;SDS_P1;SDS_P2;PMS_P1;PMS_P2;Temp;Humidity;BMP_temperature;BMP_pressure;BME280_temperature;BME280_humidity;BME280_pressure;Samples;Min_cycle;Max_cycle;Signal;HPM_P1;HPM_P2
2024/01/17 00:00:21;;;;;;;17.33;9.77;;;;;;;-4.95;100.00;98918.44;5024806;28;20187;-66
2024/01/17 00:02:47;;;;;;;21.37;12.37;;;;;;;-5.13;100.00;98904.38;5059862;28;20419;-64
2024/01/17 00:05:12;;;;;;;22.87;12.00;;;;;;;-4.99;100.00;98901.72;5033805;28;20228;-64
2024/01/17 00:07:38;;;;;;;26.20;13.63;;;;;;;-4.89;100.00;98903.31;5035715;28;20220;-65
2024/01/17 00:10:06;;;;;;;20.17;12.03;;;;;;;-4.85;100.00;98904.09;5028119;28;20174;-65
2024/01/17 00:12:32;;;;;;;27.13;14.47;;;;;;;-4.82;100.00;98905.75;5048037;28;20200;-65
2024/01/17 00:14:57;;;;;;;24.30;14.03;;;;;;;-4.95;100.00;98895.00;5033530;28;20460;-64
2024/01/17 00:17:22;;;;;;;21.07;11.93;;;;;;;-4.86;100.00;98880.69;5033776;28;20206;-64
2024/01/17 00:19:49;;;;;;;26.07;13.93;;;;;;;-4.81;100.00;98882.31;5033605;28;20261;-65
2024/01/17 00:22:16;;;;;;;17.60;10.97;;;;;;;-4.78;100.00;98864.72;5051122;28;20375;-64
2024/01/17 00:24:41;;;;;;;18.43;12.60;;;;;;;-4.91;100.00;98862.34;5032047;28;20881;-64
2024/01/17 00:27:06;;;;;;;23.27;12.90;;;;;;;-4.79;100.00;98865.56;5032036;28;20183;-64
2024/01/17 00:29:32;;;;;;;15.37;10.40;;;;;;;-4.79;100.00;98868.91;5033625;28;20183;-64
2024/01/17 00:31:57;;;;;;;17.23;10.00;;;;;;;-4.80;100.00;98852.22;5022626;28;20225;-64
2024/01/17 00:34:23;;;;;;;17.27;10.87;;;;;;;-4.75;100.00;98852.97;5035080;28;20202;-64
2024/01/17 00:36:48;;;;;;;16.50;9.57;;;;;;;-4.72;100.00;98849.59;5032674;28;20654;-66
2024/01/17 00:39:13;;;;;;;17.30;9.43;;;;;;;-4.70;100.00;98837.88;5037875;28;20191;-65
2024/01/17 00:41:40;;;;;;;12.33;8.83;;;;;;;-4.71;100.00;98828.69;5037818;28;20711;-64
2024/01/17 00:44:05;;;;;;;14.90;9.27;;;;;;;-4.72;100.00;98827.81;5034922;28;20185;-65
2024/01/17 00:46:31;;;;;;;12.33;8.50;;;;;;;-4.81;100.00;98827.97;5032988;28;20232;-63
2024/01/17 00:48:56;;;;;;;14.73;9.20;;;;;;;-4.84;100.00;98835.50;5036593;28;20171;-63
2024/01/17 00:51:23;;;;;;;23.00;9.57;;;;;;;-4.84;100.00;98839.72;5030512;28;20225;-64
2024/01/17 00:53:48;;;;;;;16.10;8.60;;;;;;;-4.92;100.00;98837.31;5037335;28;20272;-64
2024/01/17 00:56:13;;;;;;;12.27;7.27;;;;;;;-4.97;100.00;98826.47;5064875;28;20510;-65
2024/01/17 00:58:39;;;;;;;12.43;8.03;;;;;;;-5.06;100.00;98812.34;5023232;28;20185;-64
2024/01/17 01:01:04;;;;;;;15.43;8.53;;;;;;;-5.09;100.00;98810.72;5039143;28;20243;-65
2024/01/17 01:03:29;;;;;;;13.73;7.80;;;;;;;-5.13;100.00;98815.81;5043397;28;20182;-64
2024/01/17 01:05:54;;;;;;;16.80;8.40;;;;;;;-5.14;100.00;98816.66;5027543;28;20211;-65
2024/01/17 01:08:20;;;;;;;14.00;8.67;;;;;;;-5.24;100.00;98821.75;5032592;28;20187;-64
2024/01/17 01:10:45;;;;;;;14.77;7.87;;;;;;;-5.26;100.00;98812.59;5033949;28;20329;-64
2024/01/17 01:13:11;;;;;;;16.93;7.77;;;;;;;-5.27;100.00;98808.41;5052543;28;20489;-64
2024/01/17 01:15:36;;;;;;;16.27;8.17;;;;;;;-5.28;100.00;98811.78;5032534;28;20222;-64
2024/01/17 01:18:01;;;;;;;13.93;8.33;;;;;;;-5.34;100.00;98800.16;5031101;28;20190;-65
2024/01/17 01:20:27;;;;;;;17.97;9.20;;;;;;;-5.36;100.00;98800.16;5028762;28;20216;-64
2024/01/17 01:22:52;;;;;;;11.10;7.97;;;;;;;-5.37;100.00;98800.16;5057006;28;20203;-64
2024/01/17 01:25:17;;;;;;;17.23;8.67;;;;;;;-5.33;100.00;98794.28;5032807;28;20240;-63
2024/01/17 01:27:42;;;;;;;16.93;7.87;;;;;;;-5.55;100.00;98792.00;5031128;28;20174;-64
2024/01/17 01:30:08;;;;;;;13.67;8.40;;;;;;;-5.42;100.00;98799.38;5023698;28;20535;-63
2024/01/17 01:32:33;;;;;;;20.83;9.00;;;;;;;-5.45;100.00;98810.28;5046047;28;20700;-63
2024/01/17 01:34:59;;;;;;;14.53;9.07;;;;;;;-5.46;100.00;98796.06;5032060;28;20205;-65
2024/01/17 01:37:24;;;;;;;14.83;8.80;;;;;;;-5.43;100.00;98795.22;5031298;28;20240;-64
2024/01/17 01:39:49;;;;;;;16.10;9.37;;;;;;;-5.40;100.00;98783.47;5031103;28;20186;-65
2024/01/17 01:42:14;;;;;;;12.17;8.43;;;;;;;-5.38;100.00;98788.50;5053537;28;20232;-64
2024/01/17 01:44:40;;;;;;;14.63;8.67;;;;;;;-5.41;100.00;98779.34;5031995;28;20578;-64
2024/01/17 01:47:07;;;;;;;16.63;10.27;;;;;;;-5.44;100.00;98774.34;5031741;28;20231;-64
2024/01/17 01:49:33;;;;;;;14.37;9.53;;;;;;;-5.43;100.00;98771.00;5032393;28;20170;-64
2024/01/17 01:51:59;;;;;;;17.20;9.10;;;;;;;-5.44;100.00;98779.38;5039080;28;20797;-64
2024/01/17 01:54:26;;;;;;;13.60;8.73;;;;;;;-5.43;100.00;98772.66;5031154;28;20356;-65
2024/01/17 01:56:54;;;;;;;17.03;8.17;;;;;;;-5.56;100.00;98774.47;5030601;28;20205;-64
2024/01/17 01:59:20;;;;;;;14.40;9.17;;;;;;;-5.60;100.00;98770.34;5030725;28;20417;-65
2024/01/17 02:01:47;;;;;;;12.80;9.17;;;;;;;-5.68;100.00;98761.25;5037248;28;20508;-64
2024/01/17 02:04:13;;;;;;;16.33;9.33;;;;;;;-5.57;100.00;98753.63;5028209;28;20429;-64
2024/01/17 02:06:40;;;;;;;17.33;9.63;;;;;;;-5.73;100.00;98752.09;5021902;28;20433;-64
2024/01/17 02:09:06;;;;;;;16.60;9.67;;;;;;;-5.71;100.00;98747.91;5063783;28;20425;-65
2024/01/17 02:11:31;;;;;;;12.90;8.60;;;;;;;-5.59;100.00;98744.47;5044276;28;20459;-64
2024/01/17 02:13:59;;;;;;;14.80;9.80;;;;;;;-5.60;100.00;98736.09;5034940;28;20651;-64
2024/01/17 02:16:26;;;;;;;16.27;10.03;;;;;;;-5.68;100.00;98732.84;5029339;28;20251;-66
2024/01/17 02:18:51;;;;;;;16.70;10.03;;;;;;;-5.68;100.00;98720.31;5029718;28;20417;-64
2024/01/17 02:21:17;;;;;;;16.73;9.27;;;;;;;-5.71;100.00;98718.66;5033612;28;20809;-65
2024/01/17 02:23:42;;;;;;;12.33;8.73;;;;;;;-5.69;100.00;98711.97;5036240;28;20565;-64
2024/01/17 02:26:07;;;;;;;13.50;9.33;;;;;;;-5.72;100.00;98721.19;5030425;28;20182;-65
2024/01/17 02:28:33;;;;;;;13.47;8.97;;;;;;;-5.67;100.00;98710.28;5030302;28;20174;-64
2024/01/17 02:30:59;;;;;;;14.60;8.03;;;;;;;-5.73;100.00;98702.84;5036281;28;20224;-65
2024/01/17 02:33:24;;;;;;;19.70;9.47;;;;;;;-5.73;100.00;98694.47;5047756;28;20186;-64
2024/01/17 02:35:49;;;;;;;17.13;9.30;;;;;;;-5.67;100.00;98696.91;5031335;28;20214;-65
2024/01/17 02:38:15;;;;;;;16.43;10.30;;;;;;;-5.63;100.00;98681.03;5031363;28;20255;-65
2024/01/17 02:40:40;;;;;;;14.87;9.47;;;;;;;-5.61;100.00;98670.97;5031573;28;20220;-66
2024/01/17 02:43:06;;;;;;;13.93;9.57;;;;;;;-5.61;100.00;98668.47;5040415;28;20633;-65
2024/01/17 02:45:31;;;;;;;14.73;9.67;;;;;;;-5.82;100.00;98672.88;5031450;28;20313;-65
2024/01/17 02:47:57;;;;;;;11.97;8.93;;;;;;;-5.75;100.00;98666.13;5033107;28;20241;-65
2024/01/17 02:50:23;;;;;;;14.10;9.43;;;;;;;-5.74;100.00;98653.59;5033727;28;20229;-65
2024/01/17 02:52:49;;;;;;;18.20;9.27;;;;;;;-5.75;100.00;98654.44;5033595;28;20195;-65
2024/01/17 02:55:17;;;;;;;15.47;9.63;;;;;;;-5.73;100.00;98645.22;5035268;28;20453;-65
2024/01/17 02:57:42;;;;;;;14.57;9.70;;;;;;;-5.73;100.00;98651.91;5033966;28;20208;-65
2024/01/17 03:00:09;;;;;;;15.60;9.70;;;;;;;-5.71;100.00;98652.72;5026666;28;20417;-65
2024/01/17 03:02:35;;;;;;;16.07;9.67;;;;;;;-5.68;100.00;98648.50;5064850;28;20178;-66
2024/01/17 03:05:00;;;;;;;14.80;9.27;;;;;;;-5.64;100.00;98648.44;5034744;28;20416;-64
2024/01/17 03:07:26;;;;;;;15.27;9.93;;;;;;;-5.71;100.00;98642.69;5035154;28;20470;-66
2024/01/17 03:09:51;;;;;;;20.70;9.33;;;;;;;-5.76;100.00;98635.22;5035233;28;20182;-65
2024/01/17 03:12:16;;;;;;;16.57;11.07;;;;;;;-5.73;100.00;98634.34;5040737;28;20224;-64
2024/01/17 03:14:42;;;;;;;19.03;11.27;;;;;;;-5.67;100.00;98625.13;5033677;28;20289;-63
2024/01/17 03:17:08;;;;;;;18.23;10.87;;;;;;;-5.65;100.00;98621.75;5035086;28;20443;-63
2024/01/17 03:19:33;;;;;;;15.63;9.80;;;;;;;-5.62;100.00;98609.19;5034985;28;20277;-63
2024/01/17 03:22:01;;;;;;;20.17;10.63;;;;;;;-5.60;100.00;98605.00;5055106;28;20470;-63
2024/01/17 03:24:26;;;;;;;17.17;10.60;;;;;;;-5.60;100.00;98605.81;5034121;28;20220;-63
2024/01/17 03:26:51;;;;;;;14.97;10.97;;;;;;;-5.58;100.00;98605.78;5034510;28;20455;-63
2024/01/17 03:29:17;;;;;;;18.50;10.53;;;;;;;-5.58;100.00;98594.09;5034897;28;20641;-63
2024/01/17 03:31:42;;;;;;;24.23;12.80;;;;;;;-5.55;100.00;98593.22;5050791;28;20260;-64
2024/01/17 03:34:07;;;;;;;24.23;13.90;;;;;;;-5.61;100.00;98599.13;5040101;28;20182;-63
2024/01/17 03:36:32;;;;;;;19.80;11.97;;;;;;;-5.59;100.00;98589.13;5034591;28;20569;-63
2024/01/17 03:38:57;;;;;;;19.13;11.57;;;;;;;-5.60;100.00;98583.25;5034590;28;20182;-64
2024/01/17 03:41:23;;;;;;;22.97;11.03;;;;;;;-5.59;100.00;98587.44;5045216;28;20216;-65
2024/01/17 03:43:50;;;;;;;17.43;10.87;;;;;;;-5.64;100.00;98583.31;5045375;28;20625;-65
2024/01/17 03:46:15;;;;;;;20.87;11.10;;;;;;;-5.64;100.00;98573.28;5032976;28;20230;-65
2024/01/17 03:48:40;;;;;;;17.80;10.03;;;;;;;-5.66;100.00;98568.31;5037233;28;20439;-64
2024/01/17 03:51:06;;;;;;;12.63;8.70;;;;;;;-5.68;100.00;98570.84;5043013;28;20759;-64
2024/01/17 03:53:31;;;;;;;17.77;10.87;;;;;;;-5.73;100.00;98560.06;5049049;28;20206;-65
2024/01/17 03:55:56;;;;;;;21.57;9.87;;;;;;;-5.71;100.00;98555.84;5034268;28;20636;-65
2024/01/17 03:58:22;;;;;;;17.27;10.27;;;;;;;-5.68;100.00;98554.97;5033143;28;20560;-65
2024/01/17 04:00:47;;;;;;;15.97;10.27;;;;;;;-5.74;100.00;98555.03;5031118;28;20652;-66
2024/01/17 04:03:12;;;;;;;19.00;10.27;;;;;;;-5.75;100.00;98540.91;5042432;28;20625;-66
2024/01/17 04:05:38;;;;;;;18.37;10.23;;;;;;;-5.65;100.00;98542.41;5043130;28;20189;-66
2024/01/17 04:08:05;;;;;;;15.77;9.63;;;;;;;-5.68;100.00;98533.28;5033082;28;20212;-64
2024/01/17 04:10:30;;;;;;;14.80;9.80;;;;;;;-5.75;100.00;98531.69;5058320;28;20327;-64
2024/01/17 04:12:55;;;;;;;22.03;10.43;;;;;;;-5.81;100.00;98519.25;5044606;28;20947;-64
2024/01/17 04:15:20;;;;;;;14.87;9.93;;;;;;;-5.79;100.00;98512.56;5032558;28;20201;-65
2024/01/17 04:17:46;;;;;;;15.43;10.27;;;;;;;-5.72;100.00;98510.78;5024431;28;20283;-65
2024/01/17 04:20:11;;;;;;;19.73;10.57;;;;;;;-5.56;100.00;98498.88;5022822;28;20268;-65
2024/01/17 04:22:37;;;;;;;17.63;10.13;;;;;;;-5.59;100.00;98489.72;5047403;28;20277;-65
2024/01/17 04:25:02;;;;;;;13.40;10.60;;;;;;;-5.52;100.00;98473.75;5033643;28;20174;-64
2024/01/17 04:27:28;;;;;;;18.03;9.90;;;;;;;-5.61;100.00;98470.53;5033980;28;20606;-65
2024/01/17 04:29:53;;;;;;;19.47;11.30;;;;;;;-5.46;100.00;98472.81;5065677;28;20189;-65
2024/01/17 04:32:19;;;;;;;19.57;11.33;;;;;;;-5.37;100.00;98451.78;5018174;28;20467;-66
2024/01/17 04:34:44;;;;;;;18.27;10.20;;;;;;;-5.46;100.00;98457.78;5033208;28;20640;-65
2024/01/17 04:37:10;;;;;;;19.70;10.43;;;;;;;-5.43;100.00;98450.22;5033862;28;20224;-65
2024/01/17 04:39:35;;;;;;;18.90;10.07;;;;;;;-5.44;100.00;98437.72;5032264;28;20183;-64
2024/01/17 04:42:01;;;;;;;15.97;10.93;;;;;;;-5.40;100.00;98436.81;5054427;28;20290;-64
2024/01/17 04:44:30;;;;;;;22.60;12.07;;;;;;;-5.45;100.00;98426.84;5033714;28;20567;-64
2024/01/17 04:46:56;;;;;;;24.90;11.50;;;;;;;-5.31;100.00;98419.09;5032969;28;20272;-65
2024/01/17 04:49:25;;;;;;;23.87;13.13;;;;;;;-5.32;100.00;98409.94;5037981;28;20765;-65
2024/01/17 04:51:51;;;;;;;25.77;12.10;;;;;;;-5.38;100.00;98408.34;5039526;28;20231;-65
2024/01/17 04:54:16;;;;;;;21.60;12.53;;;;;;;-5.16;100.00;98410.47;5035865;28;20413;-65
2024/01/17 04:56:41;;;;;;;22.47;11.27;;;;;;;-5.18;100.00;98414.72;5033050;28;20202;-68
2024/01/17 04:59:07;;;;;;;27.50;11.73;;;;;;;-5.16;100.00;98400.44;5033103;28;20528;-65
2024/01/17 05:01:33;;;;;;;17.80;9.47;;;;;;;-5.10;100.00;98402.03;5036714;28;20237;-65
2024/01/17 05:03:58;;;;;;;15.63;9.63;;;;;;;-4.98;100.00;98390.97;5035903;28;21567;-65
2024/01/17 05:06:23;;;;;;;15.73;9.70;;;;;;;-5.11;100.00;98396.19;5033175;28;20432;-64
2024/01/17 05:08:49;;;;;;;17.60;11.03;;;;;;;-4.97;100.00;98388.41;5032866;28;20194;-64
2024/01/17 05:11:20;;;;;;;17.83;9.37;;;;;;;-4.82;100.00;98387.28;5033512;28;20224;-64
2024/01/17 05:13:45;;;;;;;16.57;9.77;;;;;;;-4.77;100.00;98378.00;5037220;28;20603;-65
2024/01/17 05:16:10;;;;;;;14.73;9.53;;;;;;;-4.69;100.00;98372.81;5032692;28;20462;-65
2024/01/17 05:18:36;;;;;;;15.93;10.07;;;;;;;-4.81;100.00;98360.50;5032772;28;20186;-64
2024/01/17 05:21:01;;;;;;;20.07;10.87;;;;;;;-4.74;100.00;98350.34;5038392;28;20230;-65
2024/01/17 05:23:26;;;;;;;19.67;10.40;;;;;;;-4.67;100.00;98352.72;5039309;28;20205;-64
2024/01/17 05:25:52;;;;;;;18.77;9.83;;;;;;;-4.64;100.00;98347.63;5032710;28;20199;-65
2024/01/17 05:28:17;;;;;;;15.73;8.87;;;;;;;-4.43;100.00;98333.78;5032354;28;20192;-65
2024/01/17 05:30:42;;;;;;;16.47;9.90;;;;;;;-4.49;100.00;98327.25;5032906;28;20325;-64
2024/01/17 05:33:07;;;;;;;14.27;9.23;;;;;;;-4.55;100.00;98332.41;5053086;28;20183;-64
2024/01/17 05:35:33;;;;;;;14.83;9.60;;;;;;;-4.72;100.00;98340.28;5032523;28;20576;-66
2024/01/17 05:37:59;;;;;;;14.07;9.50;;;;;;;-4.64;100.00;98330.91;5032247;28;20187;-65
2024/01/17 05:40:25;;;;;;;17.47;9.37;;;;;;;-4.49;100.00;98324.72;5028485;28;20232;-64
2024/01/17 05:42:50;;;;;;;17.43;9.93;;;;;;;-4.50;100.00;98314.72;5057476;28;20175;-65
2024/01/17 05:45:16;;;;;;;13.97;9.37;;;;;;;-4.44;100.00;98305.38;5032007;28;20232;-66
2024/01/17 05:47:41;;;;;;;18.40;10.23;;;;;;;-4.43;100.00;98294.47;5032389;28;20514;-64
2024/01/17 05:50:11;;;;;;;18.37;9.57;;;;;;;-4.44;100.00;98286.97;5028219;28;20426;-65
2024/01/17 05:52:41;;;;;;;18.47;10.13;;;;;;;-4.45;100.00;98283.63;5045706;28;20227;-65
2024/01/17 05:55:08;;;;;;;16.13;10.00;;;;;;;-4.29;100.00;98278.25;5030735;28;20468;-64
2024/01/17 05:57:33;;;;;;;13.53;8.07;;;;;;;-4.19;100.00;98272.16;5030680;28;20190;-66
2024/01/17 05:59:59;;;;;;;16.57;9.60;;;;;;;-4.15;100.00;98271.22;5032154;28;20415;-65
2024/01/17 06:02:24;;;;;;;15.30;9.57;;;;;;;-4.16;100.00;98278.81;5053366;28;20235;-65
2024/01/17 06:04:49;;;;;;;17.40;9.67;;;;;;;-4.22;100.00;98270.56;5030413;28;20546;-65
2024/01/17 06:07:15;;;;;;;17.43;8.90;;;;;;;-4.27;100.00;98271.53;5031777;28;20193;-65
2024/01/17 06:09:43;;;;;;;15.70;8.70;;;;;;;-4.12;100.00;98266.16;5031673;28;20193;-65
2024/01/17 06:12:09;;;;;;;16.53;8.53;;;;;;;-4.24;100.00;98256.41;5038660;28;20229;-66
2024/01/17 06:14:34;;;;;;;15.87;9.37;;;;;;;-4.13;100.00;98248.56;5029973;28;20988;-65
2024/01/17 06:16:59;;;;;;;16.73;9.63;;;;;;;-4.17;100.00;98249.53;5031534;28;20218;-66
2024/01/17 06:19:25;;;;;;;12.63;8.30;;;;;;;-4.16;100.00;98243.66;5031504;28;20270;-64
2024/01/17 06:21:50;;;;;;;12.27;8.80;;;;;;;-4.16;100.00;98244.47;5048987;28;20218;-65
2024/01/17 06:24:15;;;;;;;15.37;9.20;;;;;;;-4.08;100.00;98242.59;5035151;28;20317;-64
2024/01/17 06:26:41;;;;;;;15.27;8.50;;;;;;;-4.21;100.00;98243.75;5031492;28;20177;-65
2024/01/17 06:29:06;;;;;;;12.23;8.30;;;;;;;-4.07;100.00;98235.88;5029725;28;20633;-66
2024/01/17 06:31:31;;;;;;;15.23;8.83;;;;;;;-4.24;100.00;98237.13;5031848;28;20298;-65
2024/01/17 06:33:57;;;;;;;18.47;9.50;;;;;;;-4.33;100.00;98229.78;5039794;28;20655;-65
2024/01/17 06:36:23;;;;;;;12.90;7.87;;;;;;;-4.44;100.00;98229.22;5031206;28;20199;-65
2024/01/17 06:38:48;;;;;;;18.07;9.37;;;;;;;-4.19;100.00;98221.09;5031085;28;20187;-65
2024/01/17 06:41:14;;;;;;;16.67;9.80;;;;;;;-4.17;100.00;98216.88;5032540;28;20488;-67
2024/01/17 06:43:39;;;;;;;27.27;12.67;;;;;;;-4.17;100.00;98216.88;5043154;28;20266;-67
2024/01/17 06:46:04;;;;;;;16.23;11.03;;;;;;;-4.23;100.00;98205.28;5063073;28;20355;-66
2024/01/17 06:48:30;;;;;;;19.43;10.73;;;;;;;-4.28;100.00;98197.91;5032219;28;20185;-66
2024/01/17 06:50:56;;;;;;;15.27;9.67;;;;;;;-4.34;100.00;98194.69;5029887;28;20233;-64
2024/01/17 06:53:22;;;;;;;19.50;10.70;;;;;;;-4.18;100.00;98196.00;5048306;28;20174;-65
2024/01/17 06:55:48;;;;;;;16.30;8.60;;;;;;;-4.26;100.00;98188.63;5029499;28;20747;-65
2024/01/17 06:58:13;;;;;;;13.03;9.13;;;;;;;-4.01;100.00;98192.22;5063055;28;20550;-65
2024/01/17 07:00:38;;;;;;;11.63;8.53;;;;;;;-4.18;100.00;98182.59;5027674;28;20478;-65
2024/01/17 07:03:04;;;;;;;16.87;8.73;;;;;;;-4.31;100.00;98182.09;5052904;28;20184;-66
2024/01/17 07:05:29;;;;;;;16.50;9.63;;;;;;;-4.27;100.00;98176.13;5031040;28;20187;-65
2024/01/17 07:07:54;;;;;;;13.87;9.73;;;;;;;-4.22;100.00;98169.28;5029696;28;20216;-65
2024/01/17 07:10:20;;;;;;;15.47;10.53;;;;;;;-4.06;100.00;98162.19;5025686;28;20209;-65
2024/01/17 07:12:45;;;;;;;14.17;9.67;;;;;;;-4.22;100.00;98157.56;5057551;28;20190;-65
2024/01/17 07:15:11;;;;;;;18.30;9.63;;;;;;;-4.17;100.00;98156.63;5031169;28;20215;-65
2024/01/17 07:17:36;;;;;;;13.33;8.97;;;;;;;-4.24;100.00;98153.47;5031246;28;20211;-64
2024/01/17 07:20:04;;;;;;;15.03;8.53;;;;;;;-4.27;100.00;98154.34;5028551;28;20204;-66
2024/01/17 07:22:29;;;;;;;18.57;9.77;;;;;;;-4.23;100.00;98150.06;5045155;28;20207;-65
2024/01/17 07:24:54;;;;;;;13.33;9.70;;;;;;;-4.30;100.00;98151.09;5030428;28;20189;-64
2024/01/17 07:27:20;;;;;;;17.07;9.73;;;;;;;-4.16;100.00;98144.03;5030501;28;20527;-64
2024/01/17 07:29:45;;;;;;;15.97;9.70;;;;;;;-4.17;100.00;98144.88;5028775;28;20223;-64
2024/01/17 07:32:10;;;;;;;17.10;9.47;;;;;;;-4.24;100.00;98139.22;5052006;28;20222;-63
2024/01/17 07:34:36;;;;;;;14.83;9.03;;;;;;;-4.31;100.00;98130.19;5031899;28;20347;-64
2024/01/17 07:37:01;;;;;;;13.30;9.00;;;;;;;-4.30;100.00;98124.31;5034197;28;20215;-64
2024/01/17 07:39:26;;;;;;;17.83;9.87;;;;;;;-4.22;100.00;98119.91;5066496;28;20601;-64
2024/01/17 07:41:51;;;;;;;15.10;8.90;;;;;;;-4.12;100.00;98115.47;5052573;28;20213;-63
2024/01/17 07:44:17;;;;;;;16.30;9.57;;;;;;;-4.10;100.00;98111.22;5036968;28;20197;-63
2024/01/17 07:46:42;;;;;;;14.33;9.63;;;;;;;-3.95;100.00;98111.66;5032028;28;20320;-69
2024/01/17 07:49:07;;;;;;;14.43;9.57;;;;;;;-3.92;100.00;98099.00;5036349;28;20178;-65
2024/01/17 07:51:33;;;;;;;13.63;9.67;;;;;;;-3.77;100.00;98095.25;5046586;28;20660;-65
2024/01/17 07:53:58;;;;;;;20.83;10.40;;;;;;;-4.00;100.00;98091.69;5041897;28;20326;-64
2024/01/17 07:56:24;;;;;;;21.03;11.23;;;;;;;-4.06;100.00;98089.34;5032466;28;20222;-64
2024/01/17 07:58:50;;;;;;;16.50;9.70;;;;;;;-3.95;100.00;98079.81;5032260;28;20199;-64
2024/01/17 08:01:16;;;;;;;17.67;10.20;;;;;;;-3.94;100.00;98080.66;5043299;28;20223;-65
2024/01/17 08:03:41;;;;;;;12.90;9.70;;;;;;;-3.88;100.00;98080.50;5045607;28;20178;-64
2024/01/17 08:06:07;;;;;;;16.50;9.70;;;;;;;-3.92;100.00;98072.22;5032403;28;20185;-65
2024/01/17 08:08:32;;;;;;;19.70;11.30;;;;;;;-4.07;100.00;98068.44;5065780;28;20194;-64
2024/01/17 08:10:58;;;;;;;14.70;9.07;;;;;;;-3.95;100.00;98058.94;5038152;28;20290;-67
2024/01/17 08:13:23;;;;;;;15.50;9.43;;;;;;;-3.96;100.00;98053.06;5040007;28;20184;-64
2024/01/17 08:15:49;;;;;;;17.30;9.83;;;;;;;-3.83;100.00;98048.53;5032630;28;20725;-64
2024/01/17 08:18:14;;;;;;;17.20;10.07;;;;;;;-3.77;100.00;98042.47;5031783;28;20280;-65
2024/01/17 08:20:39;;;;;;;13.83;9.50;;;;;;;-3.87;100.00;98036.91;5030331;28;20226;-66
2024/01/17 08:23:05;;;;;;;16.77;9.90;;;;;;;-3.96;100.00;98027.13;5054826;28;20197;-66
2024/01/17 08:25:33;;;;;;;18.17;9.03;;;;;;;-3.87;100.00;98031.06;5033390;28;20179;-66
2024/01/17 08:27:59;;;;;;;15.97;9.37;;;;;;;-3.87;100.00;98021.00;5031712;28;20195;-66
2024/01/17 08:30:25;;;;;;;16.43;9.50;;;;;;;-3.82;100.00;98019.19;5008934;28;20223;-65
2024/01/17 08:32:53;;;;;;;13.47;8.87;;;;;;;-3.74;100.00;98013.06;5055438;28;20234;-65
2024/01/17 08:35:19;;;;;;;14.10;9.07;;;;;;;-3.85;100.00;98011.75;5032964;28;20212;-65
2024/01/17 08:37:44;;;;;;;15.33;9.50;;;;;;;-3.84;100.00;98009.19;5033121;28;20178;-66
2024/01/17 08:40:10;;;;;;;14.60;9.43;;;;;;;-3.96;100.00;98002.81;5024572;28;20185;-66
2024/01/17 08:42:35;;;;;;;21.13;10.23;;;;;;;-4.02;100.00;97994.66;5062994;28;20182;-65
2024/01/17 08:45:01;;;;;;;16.87;10.43;;;;;;;-3.99;100.00;97980.31;5032461;28;20192;-65
2024/01/17 08:47:26;;;;;;;18.37;11.00;;;;;;;-4.07;100.00;97988.09;5064669;28;20181;-64
2024/01/17 08:49:53;;;;;;;26.10;12.37;;;;;;;-4.04;100.00;97982.16;5033376;28;20212;-65
2024/01/17 08:52:19;;;;;;;14.10;9.77;;;;;;;-3.78;100.00;97975.53;5053808;28;20338;-65
2024/01/17 08:54:45;;;;;;;18.07;11.23;;;;;;;-3.76;100.00;97974.63;5031515;28;20274;-67
2024/01/17 08:57:10;;;;;;;17.97;10.93;;;;;;;-3.69;100.00;97967.72;5032474;28;20714;-64
2024/01/17 08:59:35;;;;;;;18.60;12.03;;;;;;;-3.63;100.00;97959.16;5032223;28;20189;-64
2024/01/17 09:02:02;;;;;;;22.10;11.70;;;;;;;-3.47;100.00;97962.03;5054683;28;20227;-66
2024/01/17 09:04:28;;;;;;;21.37;11.40;;;;;;;-3.54;100.00;97945.50;5022104;28;20535;-64
2024/01/17 09:06:54;;;;;;;17.10;11.03;;;;;;;-3.50;100.00;97937.78;5032867;28;20545;-64
2024/01/17 09:09:20;;;;;;;22.20;12.57;;;;;;;-3.41;100.00;97929.16;5031645;28;20188;-64
2024/01/17 09:11:46;;;;;;;16.47;9.90;;;;;;;-3.38;100.00;97926.50;5037796;28;20636;-63
2024/01/17 09:14:11;;;;;;;16.70;10.03;;;;;;;-3.35;100.00;97918.03;5037492;28;20186;-62
2024/01/17 09:16:37;;;;;;;16.37;10.73;;;;;;;-3.39;100.00;97914.00;5032682;28;20660;-64
2024/01/17 09:19:02;;;;;;;18.87;10.30;;;;;;;-3.25;100.00;97901.78;5030905;28;20185;-65
2024/01/17 09:21:28;;;;;;;19.43;12.20;;;;;;;-3.41;100.00;97909.84;5044734;28;20212;-63
2024/01/17 09:23:54;;;;;;;17.80;11.37;;;;;;;-3.47;100.00;97901.69;5041267;28;20229;-63
2024/01/17 09:26:19;;;;;;;18.77;10.07;;;;;;;-3.33;100.00;97901.22;5031027;28;20238;-64
2024/01/17 09:28:44;;;;;;;16.27;10.43;;;;;;;-3.17;100.00;97888.97;5032120;28;20188;-65
2024/01/17 09:31:11;;;;;;;18.57;10.67;;;;;;;-3.00;100.00;97883.31;5040024;28;20220;-65
2024/01/17 09:33:37;;;;;;;17.63;11.37;;;;;;;-2.98;100.00;97879.88;5044988;28;20205;-64
2024/01/17 09:36:02;;;;;;;17.60;10.27;;;;;;;-3.02;100.00;97878.34;5031910;28;20653;-64
2024/01/17 09:38:27;;;;;;;24.30;12.33;;;;;;;-2.98;100.00;97877.38;5032003;28;20224;-65
2024/01/17 09:40:53;;;;;;;16.40;10.63;;;;;;;-2.94;100.00;97873.06;5027137;28;20311;-64
2024/01/17 09:43:18;;;;;;;18.20;11.10;;;;;;;-2.98;100.00;97871.53;5039651;28;20182;-66
2024/01/17 09:45:44;;;;;;;21.67;11.03;;;;;;;-3.02;100.00;97872.53;5031600;28;20222;-64
2024/01/17 09:48:12;;;;;;;16.20;10.93;;;;;;;-3.08;100.00;97868.50;5030580;28;20185;-64
2024/01/17 09:50:37;;;;;;;22.33;12.40;;;;;;;-2.87;100.00;97864.41;5034711;28;20266;-64
2024/01/17 09:53:10;;;;;;;20.70;12.50;;;;;;;-2.91;100.00;97857.84;5053929;28;20174;-65
2024/01/17 09:55:38;;;;;;;18.73;11.73;;;;;;;-2.90;100.00;97856.16;5030098;28;20210;-65
2024/01/17 09:58:05;;;;;;;20.03;10.97;;;;;;;-3.03;100.00;97849.03;5029900;28;20249;-64
2024/01/17 10:00:32;;;;;;;20.43;11.27;;;;;;;-3.16;100.00;97836.09;5026503;28;20258;-65
2024/01/17 10:02:59;;;;;;;16.57;12.20;;;;;;;-3.08;100.00;97834.13;5042036;28;20174;-63
2024/01/17 10:05:26;;;;;;;20.13;12.73;;;;;;;-3.11;100.00;97826.69;5030101;28;20194;-65
2024/01/17 10:07:52;;;;;;;18.27;12.23;;;;;;;-3.17;100.00;97823.56;5030108;28;20189;-63
2024/01/17 10:10:21;;;;;;;22.47;11.77;;;;;;;-3.19;100.00;97818.56;5023790;28;20194;-63
2024/01/17 10:12:46;;;;;;;16.93;11.47;;;;;;;-3.08;100.00;97805.63;5043631;28;20174;-64
2024/01/17 10:15:13;;;;;;;21.60;11.50;;;;;;;-3.03;100.00;97806.28;5031526;28;20264;-64
2024/01/17 10:17:39;;;;;;;16.93;11.67;;;;;;;-3.06;100.00;97800.53;5030099;28;20186;-63
2024/01/17 10:20:06;;;;;;;22.50;13.13;;;;;;;-2.95;100.00;97790.94;5021784;28;20192;-65
2024/01/17 10:22:32;;;;;;;19.03;11.73;;;;;;;-3.03;100.00;97782.84;5061520;28;20236;-64
2024/01/17 10:25:00;;;;;;;17.23;11.30;;;;;;;-2.92;100.00;97779.03;5030901;28;20209;-64
2024/01/17 10:27:27;;;;;;;18.33;11.63;;;;;;;-2.89;100.00;97770.56;5029961;28;20190;-65
2024/01/17 10:29:52;;;;;;;17.80;11.87;;;;;;;-2.69;100.00;97759.75;5030948;28;20277;-65
2024/01/17 10:32:18;;;;;;;18.03;11.83;;;;;;;-2.71;100.00;97760.69;5034659;28;20221;-63
2024/01/17 10:34:44;;;;;;;16.13;11.60;;;;;;;-2.78;100.00;97747.50;5029465;28;20201;-64
2024/01/17 10:37:11;;;;;;;19.70;12.07;;;;;;;-2.86;100.00;97744.47;5029237;28;20209;-64
2024/01/17 10:39:37;;;;;;;21.23;12.27;;;;;;;-2.74;100.00;97730.59;5029807;28;20217;-64
2024/01/17 10:42:05;;;;;;;20.80;11.43;;;;;;;-2.68;100.00;97725.31;5052284;28;20215;-64
2024/01/17 10:44:31;;;;;;;17.67;12.10;;;;;;;-2.57;100.00;97714.84;5031205;28;20624;-63
2024/01/17 10:46:56;;;;;;;21.77;12.97;;;;;;;-2.47;100.00;97714.44;5030649;28;20229;-63
2024/01/17 10:49:24;;;;;;;22.50;12.23;;;;;;;-2.40;100.00;97725.06;5035895;28;20182;-64
2024/01/17 10:51:54;;;;;;;19.20;12.37;;;;;;;-2.53;100.00;97723.91;5037096;28;21021;-63
2024/01/17 10:54:25;;;;;;;19.67;12.50;;;;;;;-2.36;100.00;97713.16;5030533;28;20194;-64
2024/01/17 10:56:54;;;;;;;17.80;12.07;;;;;;;-2.35;100.00;97707.25;5030944;28;20206;-63
2024/01/17 10:59:21;;;;;;;18.50;12.30;;;;;;;-2.32;100.00;97702.09;5029323;28;20865;-65
2024/01/17 11:01:50;;;;;;;21.50;12.70;;;;;;;-2.21;100.00;97704.19;5036799;28;20231;-63
2024/01/17 11:04:37;;;;;;;17.37;12.30;;;;;;;-2.35;100.00;97699.72;5033710;28;20245;-66
2024/01/17 11:07:04;;;;;;;20.77;13.37;;;;;;;-2.33;100.00;97690.38;5029428;28;20186;-65